Time;durP1;ratioP1;P1;durP2;ratioP2;P2;SDS_P1;SDS_P2;PMS_P1;PMS_P2;Temp;Humidity;BMP_temperature;BMP_pressure;BME280_temperature;BME280_humidity;BME280_pressure;Samples;Min_cycle;Max_cycle;Signal;HPM_P1;HPM_P2
2021/03/02 00:00:07;;;;;;;39.33;17.93;;;;;;;;;;4393621;32;20471;-80
2021/03/02 00:02:33;;;;;;;43.20;18.33;;;;;;;;;;4393687;32;20166;-80
2021/03/02 00:04:58;;;;;;;43.43;18.70;;;;;;;;;;4393896;32;20176;-80
2021/03/02 00:07:26;;;;;;;44.83;19.77;;;;;;;;;;4393129;32;20151;-79
2021/03/02 00:09:52;;;;;;;46.00;18.87;;;;;;;;;;4394051;32;20199;-79
2021/03/02 00:12:21;;;;;;;47.43;19.43;;;;;;;;;;4393532;32;20259;-79
2021/03/02 00:14:46;;;;;;;40.60;18.37;;;;;;;;;;4393522;32;20162;-80
2021/03/02 00:17:16;;;;;;;46.77;18.93;;;;;;;;;;4393318;32;20162;-79
2021/03/02 00:19:55;;;;;;;43.50;19.07;;;;;;;;;;4393936;32;20162;-79
2021/03/02 00:22:24;;;;;;;42.40;18.53;;;;;;;;;;4393847;32;20172;-79
2021/03/02 00:24:53;;;;;;;44.23;19.73;;;;;;;;;;4393415;32;20228;-79
2021/03/02 00:27:20;;;;;;;47.57;19.40;;;;;;;;;;4393361;32;20155;-79
2021/03/02 00:29:47;;;;;;;49.40;20.00;;;;;;;;;;4393341;32;20197;-79
2021/03/02 00:32:13;;;;;;;50.43;19.17;;;;;;;;;;4393273;32;20158;-79
2021/03/02 00:34:38;;;;;;;42.60;18.37;;;;;;;;;;4393310;32;20162;-79
2021/03/02 00:37:04;;;;;;;43.03;18.70;;;;;;;;;;4393228;32;20205;-79
2021/03/02 00:39:29;;;;;;;45.20;19.17;;;;;;;;;;4393439;32;20169;-80
2021/03/02 00:41:54;;;;;;;48.40;20.07;;;;;;;;;;4393222;32;20268;-79
2021/03/02 00:44:20;;;;;;;47.67;19.80;;;;;;;;;;4393562;32;20691;-78
2021/03/02 00:46:45;;;;;;;54.23;20.60;;;;;;;;;;4393464;32;20162;-78
2021/03/02 00:49:10;;;;;;;44.10;19.37;;;;;;;;;;4393350;32;20157;-78
2021/03/02 00:51:36;;;;;;;48.20;20.30;;;;;;;;;;4393311;32;20166;-78
2021/03/02 00:54:03;;;;;;;46.67;19.50;;;;;;;;;;4405673;32;20165;-78
2021/03/02 00:56:29;;;;;;;46.97;19.20;;;;;;;;;;4392928;32;20158;-78
2021/03/02 00:58:54;;;;;;;44.37;18.73;;;;;;;;;;4393146;32;20630;-78
2021/03/02 01:01:19;;;;;;;48.73;20.00;;;;;;;;;;4405798;32;20211;-78
2021/03/02 01:03:45;;;;;;;47.23;20.10;;;;;;;;;;4391794;32;20567;-78
2021/03/02 01:06:10;;;;;;;41.73;18.07;;;;;;;;;;4406597;32;20145;-78
2021/03/02 01:08:38;;;;;;;47.07;20.30;;;;;;;;;;4393019;32;20613;-78
2021/03/02 01:11:07;;;;;;;51.90;20.13;;;;;;;;;;4406800;32;20727;-78
2021/03/02 01:13:35;;;;;;;48.07;19.47;;;;;;;;;;4392687;32;20161;-78
2021/03/02 01:16:01;;;;;;;52.70;19.37;;;;;;;;;;4391693;32;20225;-79
2021/03/02 01:18:26;;;;;;;42.67;19.63;;;;;;;;;;4392515;32;20215;-78
2021/03/02 01:20:51;;;;;;;49.27;20.37;;;;;;;;;;4392792;32;20228;-78
2021/03/02 01:23:17;;;;;;;48.20;19.53;;;;;;;;;;4392640;32;20177;-79
2021/03/02 01:25:42;;;;;;;46.57;19.50;;;;;;;;;;4392512;32;20155;-78
2021/03/02 01:28:08;;;;;;;46.20;19.47;;;;;;;;;;4392540;32;20154;-78
2021/03/02 01:30:33;;;;;;;51.80;20.63;;;;;;;;;;4392649;32;20222;-78
2021/03/02 01:33:11;;;;;;;48.27;19.80;;;;;;;;;;4405101;32;20475;-79
2021/03/02 01:35:37;;;;;;;46.87;19.63;;;;;;;;;;4392468;32;20590;-78
2021/03/02 01:38:02;;;;;;;51.13;19.00;;;;;;;;;;4392408;32;20147;-78
2021/03/02 01:40:31;;;;;;;54.43;20.47;;;;;;;;;;4392633;32;20180;-78
2021/03/02 01:42:57;;;;;;;51.23;20.03;;;;;;;;;;4392914;32;20230;-78
2021/03/02 01:45:22;;;;;;;49.83;20.07;;;;;;;;;;4392292;32;20655;-79
2021/03/02 01:47:48;;;;;;;48.33;19.80;;;;;;;;;;4392397;32;20158;-79
2021/03/02 01:50:13;;;;;;;52.07;20.30;;;;;;;;;;4392324;32;20176;-79
2021/03/02 01:52:46;;;;;;;53.07;20.53;;;;;;;;;;4406365;32;20146;-79
2021/03/02 01:55:14;;;;;;;54.57;21.83;;;;;;;;;;4392368;32;20154;-79
2021/03/02 01:57:39;;;;;;;54.03;21.30;;;;;;;;;;4392717;32;20579;-79
2021/03/02 02:00:27;;;;;;;61.93;21.70;;;;;;;;;;4391865;32;20322;-79
2021/03/02 02:03:12;;;;;;;50.10;19.47;;;;;;;;;;4384873;32;20161;-79
2021/03/02 02:05:42;;;;;;;54.70;20.80;;;;;;;;;;4392193;32;20185;-79
2021/03/02 02:08:25;;;;;;;50.77;19.40;;;;;;;;;;4406547;32;20118;-79
2021/03/02 02:10:52;;;;;;;54.10;20.33;;;;;;;;;;4406395;32;20191;-79
2021/03/02 02:13:41;;;;;;;49.30;19.53;;;;;;;;;;4392205;32;20676;-79
2021/03/02 02:16:11;;;;;;;56.27;20.43;;;;;;;;;;4385841;32;20462;-79
2021/03/02 02:18:37;;;;;;;55.43;20.97;;;;;;;;;;4391263;32;20192;-79
2021/03/02 02:21:06;;;;;;;47.87;20.33;;;;;;;;;;4391484;32;20150;-78
2021/03/02 02:23:39;;;;;;;49.47;20.43;;;;;;;;;;4391697;32;20157;-78
2021/03/02 02:26:18;;;;;;;49.37;20.13;;;;;;;;;;4391143;32;20208;-79
2021/03/02 02:28:44;;;;;;;62.10;22.57;;;;;;;;;;4391395;32;20184;-78
2021/03/02 02:31:10;;;;;;;49.77;20.23;;;;;;;;;;4404792;32;20134;-78
2021/03/02 02:33:43;;;;;;;50.07;21.07;;;;;;;;;;4391224;32;20507;-79
2021/03/02 02:36:12;;;;;;;54.13;20.57;;;;;;;;;;4391616;32;20181;-79
2021/03/02 02:38:40;;;;;;;54.50;21.43;;;;;;;;;;4390926;32;20158;-78
2021/03/02 02:41:09;;;;;;;57.03;21.30;;;;;;;;;;4390880;32;20211;-79
2021/03/02 02:43:34;;;;;;;59.73;21.43;;;;;;;;;;4390878;32;20218;-80
2021/03/02 02:46:00;;;;;;;57.57;21.30;;;;;;;;;;4390788;32;20162;-80
2021/03/02 02:48:26;;;;;;;50.03;20.23;;;;;;;;;;4390681;32;20495;-80
2021/03/02 02:50:52;;;;;;;51.57;20.90;;;;;;;;;;4390639;32;20521;-79
2021/03/02 02:53:18;;;;;;;52.50;20.90;;;;;;;;;;4390735;32;20176;-79
2021/03/02 02:55:48;;;;;;;64.63;22.47;;;;;;;;;;4390852;32;20488;-79
2021/03/02 02:58:19;;;;;;;54.67;21.03;;;;;;;;;;4390694;32;20150;-79
2021/03/02 03:00:47;;;;;;;54.73;21.87;;;;;;;;;;4390599;32;20212;-78
2021/03/02 03:03:20;;;;;;;56.93;19.80;;;;;;;;;;4390517;32;20176;-78
2021/03/02 03:05:47;;;;;;;56.93;21.73;;;;;;;;;;4390818;32;20291;-78
2021/03/02 03:08:31;;;;;;;61.13;22.23;;;;;;;;;;4390295;32;20177;-78
2021/03/02 03:10:59;;;;;;;59.23;21.67;;;;;;;;;;4390737;32;20154;-78
2021/03/02 03:13:45;;;;;;;63.20;22.87;;;;;;;;;;4390322;32;20180;-78
2021/03/02 03:16:11;;;;;;;54.23;20.37;;;;;;;;;;4390474;32;20178;-78
2021/03/02 03:18:44;;;;;;;65.47;23.67;;;;;;;;;;4382615;32;20198;-78
2021/03/02 03:21:09;;;;;;;56.00;21.87;;;;;;;;;;4389856;32;20138;-78
2021/03/02 03:23:35;;;;;;;59.10;21.60;;;;;;;;;;4375989;32;20235;-78
2021/03/02 03:26:01;;;;;;;57.13;22.03;;;;;;;;;;4375788;32;20225;-78
2021/03/02 03:28:30;;;;;;;57.63;22.33;;;;;;;;;;4376044;32;20493;-78
2021/03/02 03:30:55;;;;;;;55.40;21.83;;;;;;;;;;4375908;32;20223;-78
2021/03/02 03:33:21;;;;;;;63.00;21.93;;;;;;;;;;4375972;32;20518;-79
2021/03/02 03:35:46;;;;;;;66.43;22.27;;;;;;;;;;4375862;32;20501;-78
2021/03/02 03:38:12;;;;;;;58.93;21.10;;;;;;;;;;4375763;32;20166;-77
2021/03/02 03:40:37;;;;;;;67.00;23.77;;;;;;;;;;4376305;32;20537;-77
2021/03/02 03:43:03;;;;;;;60.03;21.70;;;;;;;;;;4376000;32;20578;-78
2021/03/02 03:45:28;;;;;;;64.43;22.57;;;;;;;;;;4390069;32;20520;-78
2021/03/02 03:47:56;;;;;;;63.17;23.80;;;;;;;;;;4376018;32;20628;-78
2021/03/02 03:50:43;;;;;;;60.97;22.13;;;;;;;;;;4375772;32;20629;-79
2021/03/02 03:53:09;;;;;;;65.90;24.63;;;;;;;;;;4373840;32;20162;-78
2021/03/02 03:55:42;;;;;;;54.30;21.53;;;;;;;;;;4375651;32;20194;-78
2021/03/02 03:58:14;;;;;;;65.10;22.47;;;;;;;;;;4375657;32;20209;-78
2021/03/02 04:00:40;;;;;;;61.63;22.80;;;;;;;;;;4376136;32;20157;-78
2021/03/02 04:03:06;;;;;;;56.33;21.83;;;;;;;;;;4375555;32;20656;-79
2021/03/02 04:05:34;;;;;;;56.17;21.77;;;;;;;;;;4375634;32;20213;-79
2021/03/02 04:08:00;;;;;;;62.00;23.23;;;;;;;;;;4375384;32;20162;-79
2021/03/02 04:10:26;;;;;;;56.43;23.60;;;;;;;;;;4375757;32;20768;-79
2021/03/02 04:13:04;;;;;;;71.23;24.70;;;;;;;;;;4375748;32;20158;-78
2021/03/02 04:15:30;;;;;;;65.33;22.30;;;;;;;;;;4375865;32;20492;-78
2021/03/02 04:17:56;;;;;;;63.20;23.67;;;;;;;;;;4379980;32;20166;-78
2021/03/02 04:20:22;;;;;;;59.43;22.00;;;;;;;;;;4390604;32;20162;-78
2021/03/02 04:22:54;;;;;;;60.90;22.63;;;;;;;;;;4390570;32;20177;-78
2021/03/02 04:25:20;;;;;;;57.47;21.40;;;;;;;;;;4390470;32;20166;-78
2021/03/02 04:27:45;;;;;;;69.37;23.73;;;;;;;;;;4390622;32;20192;-79
2021/03/02 04:30:11;;;;;;;70.20;23.50;;;;;;;;;;4390581;32;20587;-80
2021/03/02 04:32:36;;;;;;;67.63;24.00;;;;;;;;;;4404156;32;20551;-80
2021/03/02 04:35:11;;;;;;;68.37;24.27;;;;;;;;;;4390436;32;20166;-79
2021/03/02 04:37:37;;;;;;;72.83;25.17;;;;;;;;;;4391416;32;20223;-79
2021/03/02 04:40:08;;;;;;;69.73;25.10;;;;;;;;;;4392459;32;20169;-79
2021/03/02 04:42:34;;;;;;;65.30;24.23;;;;;;;;;;4407611;32;20133;-80
2021/03/02 04:44:59;;;;;;;72.67;24.40;;;;;;;;;;4392995;32;20591;-79
2021/03/02 04:47:25;;;;;;;60.27;22.27;;;;;;;;;;4392985;32;20270;-79
2021/03/02 04:49:50;;;;;;;71.43;24.13;;;;;;;;;;4393015;32;20210;-79
2021/03/02 04:52:19;;;;;;;61.00;24.20;;;;;;;;;;4407315;32;20142;-80
2021/03/02 04:54:44;;;;;;;64.13;24.00;;;;;;;;;;4393092;32;20182;-78
2021/03/02 04:57:10;;;;;;;62.57;22.90;;;;;;;;;;4406782;32;20193;-78
2021/03/02 04:59:54;;;;;;;67.93;23.37;;;;;;;;;;4393503;32;20212;-78
2021/03/02 05:02:20;;;;;;;56.67;22.67;;;;;;;;;;4393016;32;20228;-80
2021/03/02 05:04:48;;;;;;;65.77;23.93;;;;;;;;;;4392860;32;20204;-79
2021/03/02 05:07:23;;;;;;;65.77;23.43;;;;;;;;;;4392838;32;20282;-78
2021/03/02 05:09:48;;;;;;;58.43;23.47;;;;;;;;;;4407502;32;20188;-78
2021/03/02 05:12:16;;;;;;;73.40;25.00;;;;;;;;;;4392795;32;20161;-78
2021/03/02 05:14:51;;;;;;;63.77;23.47;;;;;;;;;;4393036;32;20162;-78
2021/03/02 05:17:17;;;;;;;64.53;24.07;;;;;;;;;;4391907;32;20180;-79
2021/03/02 05:19:48;;;;;;;64.97;23.77;;;;;;;;;;4391901;32;20169;-79
2021/03/02 05:22:19;;;;;;;63.30;24.57;;;;;;;;;;4392572;32;20157;-79
2021/03/02 05:24:44;;;;;;;62.57;24.80;;;;;;;;;;4392382;32;20162;-79
2021/03/02 05:27:12;;;;;;;68.73;24.97;;;;;;;;;;4392470;32;20184;-79
2021/03/02 05:29:40;;;;;;;72.77;24.63;;;;;;;;;;4406736;32;20172;-78
2021/03/02 05:32:06;;;;;;;62.53;24.80;;;;;;;;;;4392589;32;20200;-79
2021/03/02 05:34:31;;;;;;;62.30;22.83;;;;;;;;;;4392272;32;20154;-78
2021/03/02 05:37:00;;;;;;;70.97;24.83;;;;;;;;;;4392244;32;20177;-78
2021/03/02 05:39:31;;;;;;;67.60;23.83;;;;;;;;;;4392191;32;20196;-79
2021/03/02 05:41:56;;;;;;;68.00;24.83;;;;;;;;;;4392381;32;20185;-79
2021/03/02 05:44:22;;;;;;;77.67;27.37;;;;;;;;;;4392277;32;20155;-78
2021/03/02 05:46:47;;;;;;;80.77;25.90;;;;;;;;;;4392097;32;20596;-78
2021/03/02 05:49:20;;;;;;;70.10;25.83;;;;;;;;;;4391225;32;20498;-79
2021/03/02 05:51:45;;;;;;;74.17;25.33;;;;;;;;;;4392262;32;20197;-78
2021/03/02 05:54:11;;;;;;;69.83;24.87;;;;;;;;;;4392108;32;20579;-77
2021/03/02 05:56:40;;;;;;;68.20;24.63;;;;;;;;;;4391903;32;20189;-79
2021/03/02 05:59:14;;;;;;;68.77;24.83;;;;;;;;;;4391826;32;20189;-79
2021/03/02 06:01:42;;;;;;;72.33;26.30;;;;;;;;;;4392155;32;20148;-79
2021/03/02 06:04:13;;;;;;;77.40;26.20;;;;;;;;;;4391754;32;20626;-79
2021/03/02 06:06:41;;;;;;;75.47;24.60;;;;;;;;;;4405951;32;20142;-80
2021/03/02 06:09:09;;;;;;;69.13;26.00;;;;;;;;;;4392230;32;20215;-78
2021/03/02 06:11:57;;;;;;;80.27;28.00;;;;;;;;;;4391844;32;20161;-79
2021/03/02 06:14:23;;;;;;;79.93;24.93;;;;;;;;;;4392268;32;20233;-77
2021/03/02 06:16:50;;;;;;;76.60;26.90;;;;;;;;;;4391672;32;20590;-77
2021/03/02 06:19:15;;;;;;;70.57;24.73;;;;;;;;;;4391783;32;20201;-77
2021/03/02 06:21:41;;;;;;;83.80;27.10;;;;;;;;;;4391983;32;20226;-78
2021/03/02 06:24:07;;;;;;;75.73;26.47;;;;;;;;;;4391951;32;20464;-78
2021/03/02 06:26:37;;;;;;;69.20;25.10;;;;;;;;;;4391542;32;20463;-77
2021/03/02 06:29:25;;;;;;;63.13;25.17;;;;;;;;;;4391636;32;20245;-77
2021/03/02 06:31:53;;;;;;;71.27;24.70;;;;;;;;;;4391432;32;20169;-79
2021/03/02 06:34:19;;;;;;;75.90;25.13;;;;;;;;;;4391508;32;20174;-79
2021/03/02 06:37:14;;;;;;;78.37;25.53;;;;;;;;;;4391325;32;20514;-78
2021/03/02 06:39:42;;;;;;;80.10;26.37;;;;;;;;;;4391700;32;20196;-77
2021/03/02 06:42:26;;;;;;;80.43;26.40;;;;;;;;;;4404944;32;20213;-79
2021/03/02 06:44:54;;;;;;;72.53;25.90;;;;;;;;;;4391827;32;20150;-78
2021/03/02 06:47:35;;;;;;;68.27;24.50;;;;;;;;;;4391035;32;20587;-79
2021/03/02 06:50:02;;;;;;;70.07;25.20;;;;;;;;;;4391279;32;20172;-75
2021/03/02 06:52:35;;;;;;;69.93;25.57;;;;;;;;;;4391444;32;20162;-77
2021/03/02 06:55:00;;;;;;;68.13;26.47;;;;;;;;;;4391454;32;20181;-76
2021/03/02 06:57:25;;;;;;;68.97;24.90;;;;;;;;;;4391190;32;20154;-77
2021/03/02 06:59:54;;;;;;;74.60;27.23;;;;;;;;;;4390897;32;20154;-74
2021/03/02 07:02:55;;;;;;;75.27;25.17;;;;;;;;;;4391183;32;20207;-76
2021/03/02 07:05:21;;;;;;;74.53;26.07;;;;;;;;;;4360533;32;20223;-74
2021/03/02 07:07:47;;;;;;;65.33;24.87;;;;;;;;;;4396852;32;20162;-78
2021/03/02 07:10:14;;;;;;;67.57;24.60;;;;;;;;;;4390799;32;20158;-78
2021/03/02 07:12:45;;;;;;;66.53;24.83;;;;;;;;;;4389011;32;20236;-79
2021/03/02 07:15:14;;;;;;;75.67;26.03;;;;;;;;;;4389869;32;20154;-77
2021/03/02 07:17:42;;;;;;;65.57;24.60;;;;;;;;;;4404511;32;20149;-78
2021/03/02 07:20:08;;;;;;;73.87;27.07;;;;;;;;;;4390448;32;20169;-79
2021/03/02 07:22:37;;;;;;;66.47;25.83;;;;;;;;;;4390740;32;20214;-75
2021/03/02 07:25:03;;;;;;;66.20;25.27;;;;;;;;;;4390260;32;20162;-77
2021/03/02 07:27:29;;;;;;;69.77;25.97;;;;;;;;;;4390565;32;20166;-77
2021/03/02 07:30:19;;;;;;;68.77;25.57;;;;;;;;;;4404451;32;20620;-77
2021/03/02 07:32:54;;;;;;;67.80;26.50;;;;;;;;;;4389262;32;20173;-79
2021/03/02 07:35:22;;;;;;;65.13;25.77;;;;;;;;;;4389972;32;20237;-76
2021/03/02 07:38:10;;;;;;;72.97;26.77;;;;;;;;;;4389990;32;20158;-78
2021/03/02 07:40:41;;;;;;;57.73;23.87;;;;;;;;;;4404018;32;20197;-78
2021/03/02 07:43:22;;;;;;;60.77;25.13;;;;;;;;;;4405690;32;20161;-78
2021/03/02 07:45:48;;;;;;;63.70;26.00;;;;;;;;;;4390886;32;20162;-76
2021/03/02 07:48:23;;;;;;;61.33;23.83;;;;;;;;;;4404259;32;20464;-77
2021/03/02 07:51:09;;;;;;;62.93;24.33;;;;;;;;;;4390674;32;20184;-78
2021/03/02 07:53:43;;;;;;;59.53;24.37;;;;;;;;;;4390682;32;20161;-79
2021/03/02 07:56:23;;;;;;;65.00;24.30;;;;;;;;;;4388873;32;20180;-78
2021/03/02 07:59:01;;;;;;;58.30;23.70;;;;;;;;;;4390715;32;20165;-78
2021/03/02 08:01:26;;;;;;;63.23;23.77;;;;;;;;;;4391120;32;20161;-77
2021/03/02 08:04:11;;;;;;;59.67;24.50;;;;;;;;;;4390340;32;20555;-77
2021/03/02 08:06:36;;;;;;;58.60;23.47;;;;;;;;;;4389950;32;20498;-80
2021/03/02 08:09:22;;;;;;;56.40;24.00;;;;;;;;;;4399147;32;20242;-77
2021/03/02 08:11:47;;;;;;;62.50;23.57;;;;;;;;;;4405293;32;20165;-78
2021/03/02 08:14:16;;;;;;;58.53;23.40;;;;;;;;;;4408423;32;20169;-79
2021/03/02 08:16:52;;;;;;;58.50;22.67;;;;;;;;;;4408034;32;20184;-78
2021/03/02 08:19:30;;;;;;;59.47;24.33;;;;;;;;;;4396852;32;20632;-78
2021/03/02 08:22:06;;;;;;;49.27;22.40;;;;;;;;;;4398028;32;20188;-78
2021/03/02 08:24:50;;;;;;;46.13;20.97;;;;;;;;;;4399414;32;20157;-80
2021/03/02 08:27:16;;;;;;;50.93;21.37;;;;;;;;;;4404026;32;20206;-76
2021/03/02 08:29:48;;;;;;;56.10;22.37;;;;;;;;;;4396767;32;20283;-78
2021/03/02 08:32:14;;;;;;;53.23;22.00;;;;;;;;;;4392835;32;20162;-79
2021/03/02 08:34:39;;;;;;;47.30;21.40;;;;;;;;;;4393276;32;20634;-77
2021/03/02 08:37:04;;;;;;;47.60;20.97;;;;;;;;;;4392952;32;20154;-77
2021/03/02 08:39:50;;;;;;;;;;;;;;;;;;;;;
2021/03/02 08:42:22;;;;;;;48.93;21.20;;;;;;;;;;4407072;32;20146;-77
2021/03/02 08:44:50;;;;;;;51.37;21.03;;;;;;;;;;4405845;32;20158;-78
2021/03/02 08:47:34;;;;;;;;;;;;;;;;;;;;;
2021/03/02 08:50:00;;;;;;;45.70;19.90;;;;;;;;;;4407184;32;20143;-77
2021/03/02 08:52:44;;;;;;;40.87;19.47;;;;;;;;;;4405405;32;20150;-78
2021/03/02 08:55:12;;;;;;;38.57;18.97;;;;;;;;;;4394389;32;20228;-78
2021/03/02 08:58:16;;;;;;;;;;;;;;;;;;;;;
2021/03/02 09:01:08;;;;;;;39.00;18.67;;;;;;;;;;4388881;32;20184;-77
2021/03/02 09:03:46;;;;;;;39.47;18.03;;;;;;;;;;4392623;32;20157;-78
2021/03/02 09:06:50;;;;;;;;;;;;;;;;;;;;;
2021/03/02 09:09:16;;;;;;;36.43;17.10;;;;;;;;;;4405778;32;20178;-77
2021/03/02 09:11:59;;;;;;;36.07;17.73;;;;;;;;;;4389760;32;20182;-78
2021/03/02 09:14:26;;;;;;;38.83;18.27;;;;;;;;;;4390435;32;20196;-79
2021/03/02 09:17:02;;;;;;;39.77;18.13;;;;;;;;;;4391390;32;20172;-78
2021/03/02 09:19:41;;;;;;;33.93;17.33;;;;;;;;;;4390568;32;20179;-78
2021/03/02 09:22:16;;;;;;;34.60;17.60;;;;;;;;;;4391388;32;20115;-78
2021/03/02 09:24:42;;;;;;;32.43;16.77;;;;;;;;;;4389856;32;20145;-79
2021/03/02 09:27:08;;;;;;;36.90;17.23;;;;;;;;;;4389701;32;20195;-78
2021/03/02 09:30:06;;;;;;;32.57;16.80;;;;;;;;;;4388528;32;20166;-78
2021/03/02 09:32:36;;;;;;;35.90;17.80;;;;;;;;;;4388585;32;20543;-80
2021/03/02 09:35:07;;;;;;;34.53;16.37;;;;;;;;;;4391123;32;20122;-78
2021/03/02 09:37:36;;;;;;;29.00;15.23;;;;;;;;;;4389596;32;20166;-78
2021/03/02 09:40:01;;;;;;;31.53;16.37;;;;;;;;;;4390649;32;20166;-78
2021/03/02 09:42:28;;;;;;;33.20;15.50;;;;;;;;;;4391146;32;20201;-78
2021/03/02 09:44:55;;;;;;;33.07;15.73;;;;;;;;;;4389541;32;20166;-79
2021/03/02 09:47:27;;;;;;;28.17;14.40;;;;;;;;;;4388977;32;20154;-79
2021/03/02 09:50:16;;;;;;;28.23;15.47;;;;;;;;;;4389598;32;20230;-78
2021/03/02 09:53:09;;;;;;;;;;;;;;;;;;;;;
2021/03/02 09:55:42;;;;;;;26.50;13.90;;;;;;;;;;4358909;32;20157;-78
2021/03/02 09:58:12;;;;;;;26.50;14.00;;;;;;;;;;4382556;32;20189;-79
2021/03/02 10:01:08;;;;;;;22.50;13.60;;;;;;;;;;4390766;32;20135;-78
2021/03/02 10:04:10;;;;;;;26.27;13.30;;;;;;;;;;4389660;32;20146;-78
2021/03/02 10:06:36;;;;;;;27.63;14.30;;;;;;;;;;4390847;32;20250;-79
2021/03/02 10:09:01;;;;;;;25.63;14.73;;;;;;;;;;4389045;32;20181;-80
2021/03/02 10:11:50;;;;;;;28.27;14.10;;;;;;;;;;4390685;32;20177;-78
2021/03/02 10:14:43;;;;;;;27.93;14.20;;;;;;;;;;4389954;32;20299;-79
2021/03/02 10:17:09;;;;;;;25.03;14.20;;;;;;;;;;4369056;32;20170;-78
2021/03/02 10:19:35;;;;;;;29.10;14.27;;;;;;;;;;4391008;32;20205;-79
2021/03/02 10:22:01;;;;;;;26.25;14.82;;;;;;;;;;4391446;32;20233;-77
2021/03/02 10:24:27;;;;;;;32.83;16.33;;;;;;;;;;4391065;32;20229;-79
2021/03/02 10:27:02;;;;;;;24.77;14.27;;;;;;;;;;4391362;32;20211;-79
2021/03/02 10:29:48;;;;;;;26.23;14.23;;;;;;;;;;4378470;32;20223;-79
2021/03/02 10:32:20;;;;;;;24.87;13.25;;;;;;;;;;4375544;32;20579;-79
2021/03/02 10:35:12;;;;;;;22.90;13.15;;;;;;;;;;4375190;32;20234;-78
2021/03/02 10:37:37;;;;;;;26.02;14.68;;;;;;;;;;4375410;32;20185;-78
2021/03/02 10:40:02;;;;;;;25.35;13.98;;;;;;;;;;4389997;32;20153;-77
2021/03/02 10:42:42;;;;;;;26.90;14.15;;;;;;;;;;4376256;32;20281;-79
2021/03/02 10:45:07;;;;;;;29.30;14.40;;;;;;;;;;4374595;32;20153;-80
2021/03/02 10:47:33;;;;;;;23.55;13.62;;;;;;;;;;4384755;32;20226;-79
2021/03/02 10:50:01;;;;;;;27.77;13.43;;;;;;;;;;4361042;32;20174;-77
2021/03/02 10:53:01;;;;;;;26.15;13.40;;;;;;;;;;4360700;32;20189;-79
2021/03/02 10:55:30;;;;;;;23.08;13.25;;;;;;;;;;4373810;32;20197;-76
2021/03/02 10:58:04;;;;;;;20.58;12.10;;;;;;;;;;4361509;32;20158;-78
2021/03/02 11:00:39;;;;;;;27.10;14.52;;;;;;;;;;4374933;32;20168;-78
2021/03/02 11:03:05;;;;;;;24.87;13.15;;;;;;;;;;4372945;32;20151;-78
2021/03/02 11:05:30;;;;;;;24.83;12.35;;;;;;;;;;4377630;32;20494;-78
2021/03/02 11:08:01;;;;;;;21.60;12.68;;;;;;;;;;4405145;32;20165;-78
2021/03/02 11:10:28;;;;;;;24.25;13.57;;;;;;;;;;4379048;32;20169;-79
2021/03/02 11:13:05;;;;;;;21.15;12.37;;;;;;;;;;4391404;32;20155;-78
2021/03/02 11:15:33;;;;;;;23.30;12.80;;;;;;;;;;4379651;32;20691;-79
2021/03/02 11:17:58;;;;;;;21.58;12.18;;;;;;;;;;4363002;32;20257;-78
2021/03/02 11:20:35;;;;;;;19.00;11.68;;;;;;;;;;4384637;32;20523;-77
2021/03/02 11:23:01;;;;;;;21.25;12.73;;;;;;;;;;4404869;32;20149;-79
2021/03/02 11:28:12;;;;;;;19.73;10.68;;;;;;;;;;4396436;32;20613;-73
2021/03/02 11:30:37;;;;;;;18.55;10.98;;;;;;;;;;4390693;32;20158;-78
2021/03/02 11:33:20;;;;;;;;;;;;;;;;;;;;;
2021/03/02 11:35:46;;;;;;;16.70;10.07;;;;;;;;;;4404324;32;20224;-79
2021/03/02 11:38:13;;;;;;;18.27;10.70;;;;;;;;;;4403011;32;20158;-79
2021/03/02 11:40:38;;;;;;;16.95;10.48;;;;;;;;;;4403676;32;20161;-80
2021/03/02 11:43:04;;;;;;;13.73;9.55;;;;;;;;;;4403361;32;20548;-78
2021/03/02 11:45:35;;;;;;;15.65;10.55;;;;;;;;;;4402918;32;20165;-78
2021/03/02 11:50:45;;;;;;;18.00;10.30;;;;;;;;;;4407477;32;20586;-79
2021/03/02 11:53:23;;;;;;;15.55;9.70;;;;;;;;;;4406487;32;20225;-81
2021/03/02 11:55:54;;;;;;;16.87;10.48;;;;;;;;;;4406589;32;20162;-78
2021/03/02 11:58:23;;;;;;;16.52;11.23;;;;;;;;;;4406229;32;20181;-78
2021/03/02 12:00:51;;;;;;;14.57;10.02;;;;;;;;;;4406239;32;20177;-78
2021/03/02 12:03:20;;;;;;;14.65;9.82;;;;;;;;;;4397751;32;20193;-78
2021/03/02 12:05:51;;;;;;;13.85;9.77;;;;;;;;;;4393317;32;20198;-79
2021/03/02 12:08:25;;;;;;;16.50;10.30;;;;;;;;;;4393282;32;20192;-77
2021/03/02 12:11:13;;;;;;;13.40;10.02;;;;;;;;;;4393599;32;20191;-79
2021/03/02 12:13:44;;;;;;;20.58;10.70;;;;;;;;;;4385947;32;20170;-78
2021/03/02 12:16:12;;;;;;;16.45;10.07;;;;;;;;;;4393766;32;20225;-78
2021/03/02 12:18:40;;;;;;;13.27;9.77;;;;;;;;;;4393415;32;20204;-78
2021/03/02 12:21:22;;;;;;;13.25;9.85;;;;;;;;;;4379816;32;20241;-78
2021/03/02 12:23:47;;;;;;;16.52;10.93;;;;;;;;;;4377288;32;20218;-77
2021/03/02 12:26:12;;;;;;;16.50;10.73;;;;;;;;;;4378201;32;20614;-79
2021/03/02 12:28:41;;;;;;;14.80;10.02;;;;;;;;;;4378707;32;20185;-78
2021/03/02 12:31:07;;;;;;;16.77;10.45;;;;;;;;;;4377866;32;20584;-79
2021/03/02 12:33:40;;;;;;;13.05;9.32;;;;;;;;;;4377400;32;20162;-78
2021/03/02 12:36:05;;;;;;;14.57;9.60;;;;;;;;;;4377916;32;20315;-79
2021/03/02 12:38:42;;;;;;;12.80;9.52;;;;;;;;;;4378340;32;20193;-79
2021/03/02 12:41:22;;;;;;;12.63;10.05;;;;;;;;;;4378047;32;20586;-79
2021/03/02 12:43:51;;;;;;;14.48;9.43;;;;;;;;;;4378025;32;20166;-80
2021/03/02 12:46:16;;;;;;;14.45;9.30;;;;;;;;;;4378011;32;20163;-78
2021/03/02 12:48:41;;;;;;;13.52;8.55;;;;;;;;;;4377614;32;20569;-81
2021/03/02 12:51:07;;;;;;;13.77;9.73;;;;;;;;;;4377775;32;20592;-80
2021/03/02 12:53:38;;;;;;;15.60;10.77;;;;;;;;;;4363899;32;20194;-78
2021/03/02 12:56:03;;;;;;;15.68;9.60;;;;;;;;;;4363305;32;20171;-79
2021/03/02 12:58:29;;;;;;;14.32;9.50;;;;;;;;;;4362462;32;20634;-79
2021/03/02 13:01:00;;;;;;;14.07;9.50;;;;;;;;;;4363071;32;20205;-78
2021/03/02 13:03:26;;;;;;;14.98;9.38;;;;;;;;;;4376933;32;20216;-79
2021/03/02 13:06:05;;;;;;;15.27;10.00;;;;;;;;;;4391700;32;20177;-79
2021/03/02 13:08:31;;;;;;;13.65;9.88;;;;;;;;;;4377561;32;20162;-76
2021/03/02 13:11:05;;;;;;;13.68;9.38;;;;;;;;;;4377055;32;20162;-79
2021/03/02 13:13:33;;;;;;;14.85;10.50;;;;;;;;;;4377130;32;20193;-78
2021/03/02 13:15:58;;;;;;;15.38;9.32;;;;;;;;;;4390843;32;20154;-79
2021/03/02 13:18:29;;;;;;;14.85;9.95;;;;;;;;;;4391069;32;20183;-79
2021/03/02 13:20:56;;;;;;;12.52;8.95;;;;;;;;;;4386589;32;20511;-79
2021/03/02 13:23:21;;;;;;;11.20;9.07;;;;;;;;;;4389503;32;20470;-78
2021/03/02 13:25:47;;;;;;;14.20;8.57;;;;;;;;;;4389722;32;20154;-80
2021/03/02 13:28:13;;;;;;;12.60;9.85;;;;;;;;;;4389854;32;20249;-77
2021/03/02 13:30:38;;;;;;;14.27;10.00;;;;;;;;;;4390006;32;20170;-78
2021/03/02 13:33:10;;;;;;;11.48;8.88;;;;;;;;;;4390874;32;20135;-78
2021/03/02 13:35:36;;;;;;;12.10;9.13;;;;;;;;;;4388737;32;20283;-79
2021/03/02 13:38:03;;;;;;;14.02;9.70;;;;;;;;;;4389515;32;20564;-75
2021/03/02 13:40:28;;;;;;;11.77;8.70;;;;;;;;;;4388616;32;20184;-79
2021/03/02 13:42:53;;;;;;;12.45;9.10;;;;;;;;;;4386904;32;20167;-80
2021/03/02 13:45:30;;;;;;;14.35;9.80;;;;;;;;;;4388043;32;20162;-80
2021/03/02 13:48:05;;;;;;;15.73;9.50;;;;;;;;;;4374464;32;20202;-79
2021/03/02 13:50:33;;;;;;;13.10;9.48;;;;;;;;;;4389279;32;20215;-79
2021/03/02 13:52:59;;;;;;;17.12;10.13;;;;;;;;;;4389450;32;20185;-79
2021/03/02 13:55:36;;;;;;;14.00;10.23;;;;;;;;;;4388484;32;20155;-78
2021/03/02 13:58:07;;;;;;;13.82;9.68;;;;;;;;;;4389460;32;20276;-78
2021/03/02 14:00:36;;;;;;;13.27;9.75;;;;;;;;;;4389699;32;20153;-79
2021/03/02 14:03:11;;;;;;;13.50;10.35;;;;;;;;;;4389025;32;20229;-79
2021/03/02 14:08:37;;;;;;;13.45;10.00;;;;;;;;;;4366917;32;20180;-78
2021/03/02 14:11:02;;;;;;;14.48;10.60;;;;;;;;;;4388018;32;20252;-79
2021/03/02 14:13:28;;;;;;;16.15;11.52;;;;;;;;;;4390171;32;20161;-78
2021/03/02 14:15:54;;;;;;;14.82;10.70;;;;;;;;;;4388941;32;20162;-79
2021/03/02 14:18:49;;;;;;;13.20;9.82;;;;;;;;;;4388653;32;20170;-79
2021/03/02 14:21:20;;;;;;;14.93;10.13;;;;;;;;;;4387206;32;20178;-78
2021/03/02 14:23:47;;;;;;;14.77;9.95;;;;;;;;;;4389084;32;20708;-79
2021/03/02 14:26:34;;;;;;;14.30;9.95;;;;;;;;;;4388794;32;20189;-80
2021/03/02 14:29:03;;;;;;;15.40;10.55;;;;;;;;;;4389366;32;20579;-78
2021/03/02 14:31:36;;;;;;;12.43;9.88;;;;;;;;;;4388218;32;20277;-77
2021/03/02 14:34:02;;;;;;;18.65;10.63;;;;;;;;;;4388867;32;20154;-80
2021/03/02 14:36:47;;;;;;;12.48;10.15;;;;;;;;;;4388751;32;20611;-79
2021/03/02 14:39:12;;;;;;;20.30;10.38;;;;;;;;;;4385976;32;20180;-79
2021/03/02 14:41:41;;;;;;;15.43;10.80;;;;;;;;;;4388356;32;20185;-76
2021/03/02 14:44:14;;;;;;;14.57;10.20;;;;;;;;;;4389764;32;20266;-74
2021/03/02 14:46:40;;;;;;;15.23;10.45;;;;;;;;;;4388780;32;20178;-80
2021/03/02 14:49:09;;;;;;;16.55;10.90;;;;;;;;;;4388609;32;20200;-78
2021/03/02 14:51:35;;;;;;;16.85;11.50;;;;;;;;;;4388619;32;20681;-80